La Mesa, New Mexico
Current Conditions -  °F | °C
As of 4:15 PM on Tuesday 25 Nov 2014 (Local Time) from KLRU Reporting Station
Clear Clear  
Wind Chill: 52°   Ceiling: Unl
Heat Index: 52°   Visibility: 10mi
Dew Point:   Wind: 12mph
Humidity: 14%   Direction: 250°WSW
Pressure: 30.31"   Gusts: NA
Location:  32.12°N, 106.71°W
Report Text: KLRU 252315Z AUTO 25010KT 10SM CLR 11/M16 A3031 RMK AO2 T01111160
Loading
Personal Weather Stations






























Interactive Weather Map New forecast layout! Learn more

10-Day Weather Forecast

Advertisements
Track Severe Weather on mobile